Flight Track Log - Related Links

Times and Time Zones

All times are in EDT time to prevent confusion due to time zone crossing. See the SWA714 flight status page for this flight to view local times or setup timezone preferences in your user account.


Time Position Orientation Groundspeed Altitude Reporting Facility
EDT Latitude Longitude Course Direction KTS MPH feet Rate Location/Type
Mon 10:42:11 AM 33.6583 -101.7953 88° East 208 239 4,400  Level Fort Worth Center
Mon 10:42:59 AM 33.6603 -101.7381 88° East 223 257 6,000 2,870 Climbing Fort Worth Center
Mon 10:44:06 AM 33.6639 -101.6311 88° East 327 376 9,900 3,516 Climbing Fort Worth Center
Mon 10:45:07 AM 33.6744 -101.5042 84° East 373 429 13,500 3,471 Climbing Fort Worth Center
Mon 10:46:07 AM 33.6828 -101.3772 85° East 387 445 16,900 2,057 Climbing Fort Worth Center
Mon 10:47:27 AM 33.7025 -101.2061 82° East 426 490 18,300 1,929 Climbing Fort Worth Center
Mon 10:48:27 AM 33.7189 -101.0842 81° East 407 468 21,400 3,200 Climbing Fort Worth Center
Mon 10:49:27 AM 33.7481 -100.9331 77° East 412 474 24,700 2,850 Climbing Fort Worth Center
Mon 10:50:27 AM 33.7747 -100.8069 76° East 424 488 27,100 2,250 Climbing Fort Worth Center
Mon 10:51:27 AM 33.7975 -100.6528 80° East 440 506 29,200 2,100 Climbing Fort Worth Center
Mon 10:52:27 AM 33.8222 -100.5011 79° East 460 529 31,300 2,000 Climbing Fort Worth Center
Mon 10:53:27 AM 33.8511 -100.3422 78° East 473 544 33,200 1,850 Climbing Fort Worth Center
Mon 10:54:27 AM 33.8775 -100.1831 79° East 486 559 35,000 900 Climbing Fort Worth Center
Mon 10:55:27 AM 33.9039 -100.0236 79° East 492 566 35,000  Level Fort Worth Center
Mon 10:56:27 AM 33.9344 -99.8592 77° East 486 559 35,000  Level Fort Worth Center
Mon 10:57:27 AM 33.9500 -99.6944 83° East 486 559 35,000 -350 Level Fort Worth Center
Mon 10:58:27 AM 33.9214 -99.5411 103° East 472 543 34,300 -800 Descending Fort Worth Center
Mon 10:59:27 AM 33.8864 -99.3850 105° East 472 543 33,400 -650 Descending Fort Worth Center
Mon 11:00:27 AM 33.8514 -99.2242 105° East 477 549 33,000 -200 Descending Fort Worth Center
Mon 11:01:27 AM 33.8139 -99.0583 105° East 477 549 33,000  Level Fort Worth Center
Mon 11:02:27 AM 33.7825 -98.9006 103° East 477 549 33,000 -300 Level Fort Worth Center
Mon 11:03:27 AM 33.7447 -98.7400 106° East 477 549 32,400 -700 Descending Fort Worth Center
Mon 11:04:27 AM 33.7128 -98.5969 105° East 484 557 31,600 -900 Descending Fort Worth Center
Mon 11:05:27 AM 33.6767 -98.4419 106° East 489 563 30,600 -1,000 Descending Fort Worth Center
Mon 11:06:27 AM 33.6403 -98.2817 105° East 489 563 29,600 -2,350 Descending Fort Worth Center
Mon 11:07:27 AM 33.6036 -98.1242 106° East 489 563 25,900 -3,750 Descending Fort Worth Center
Mon 11:08:27 AM 33.5689 -97.9694 105° East 495 570 22,100 -4,050 Descending Fort Worth Center
Mon 11:09:27 AM 33.5258 -97.7972 107° East 490 564 17,800 -3,450 Descending Fort Worth Center
Mon 11:10:27 AM 33.4928 -97.6550 106° East 463 533 15,200 -2,861 Descending Fort Worth Center
Mon 11:11:58 AM 33.4333 -97.4500 109° East 418 481 10,600 -2,450 Descending Dallas / Fort Worth TRACON
Mon 11:12:27 AM 33.4075 -97.4258 142° Southeast 383 441 10,300 -742 Descending Fort Worth Center
Mon 11:13:27 AM 33.3594 -97.3314 121° Southeast 338 389 9,500 -1,100 Descending Fort Worth Center
Mon 11:14:27 AM 33.3656 -97.2369 86° East 298 343 8,100 -1,500 Descending Fort Worth Center
Mon 11:15:27 AM 33.3736 -97.1225 85° East 304 350 6,500 -1,500 Descending Fort Worth Center
Mon 11:16:27 AM 33.3775 -97.0328 87° East 304 350 5,100 -1,250 Descending Fort Worth Center
Mon 11:17:27 AM 33.3836 -96.9233 86° East 304 350 4,000 -550 Descending Fort Worth Center
Mon 11:18:27 AM 33.3456 -96.8589 125° Southeast 264 304 4,000  Level Fort Worth Center
Mon 11:19:27 AM 33.2828 -96.7997 142° Southeast 257 296 4,000  Level Fort Worth Center
Mon 11:20:27 AM 33.2325 -96.7603 147° Southeast 257 296 4,000  Level Fort Worth Center
Mon 11:21:27 AM 33.1758 -96.7233 151° Southeast 220 253 4,000  Level Fort Worth Center
Mon 11:22:27 AM 33.1386 -96.7536 214° Southwest 177 204 4,000  Level Fort Worth Center
Mon 11:23:27 AM 33.0928 -96.7861 211° Southwest 177 204 4,000 -145 Level Fort Worth Center
Mon 11:24:31 AM 33.0500 -96.8333 223° Southwest 161 185 3,700 -532 Descending Dallas / Fort Worth TRACON
Mon 11:25:31 AM 33.0333 -96.8667 239° Southwest 155 178 2,900 -800 Descending Dallas / Fort Worth TRACON

Login

Don't have an account? Register now (free) for customized features, flight alerts, and more!